Dorsten Airfield

DE-0176 · Nordrhein-Westfalen, Deutschland

METAR-Geschichte DE-0176 · Dorsten Airfield

Unten siehst du die METARs der letzten paar Tage. Wähle ein Jahr, um ältere METARs ab dem Jahr 2007 zu durchsuchen.

28. November 2022

Uhrzeit Code Wetter Temp. Sichtweite Wolkendecke Wind METAR/SPECI
01:50
V
7 °C 10 km+ - 150° 150° 18 kt METAR EDDL 280050Z AUTO 15018KT 9999 -RA FEW038 SCT047 07/05 Q1011 NOSIG
01:20
V
7 °C 10 km+ - 150° 150° 17 kt METAR EDDL 280020Z AUTO 15017KT 9999 -DZ NSC 07/05 Q1011 NOSIG
00:50
V
7 °C 10 km+ - 150° 150° 17 kt METAR EDDL 272350Z AUTO 15017KT 9999 -RA NSC 07/05 Q1011 NOSIG
00:20
V
7 °C 10 km+ - 150° 150° 16 kt METAR EDDL 272320Z AUTO 15016KT 9999 -RADZ SCT028 07/05 Q1012 TEMPO RA

27. November 2022

Uhrzeit Code Wetter Temp. Sichtweite Wolkendecke Wind METAR/SPECI
23:50
M
7 °C 10 km+ 2.800 ft 160° 160° 13 kt METAR EDDL 272250Z AUTO 16013KT 9999 -RA OVC028 07/05 Q1012 NOSIG
23:20
M
7 °C 10 km+ 2.900 ft 150° 150° 13 kt METAR EDDL 272220Z AUTO 15013KT 9999 -RA BKN029 07/04 Q1012 NOSIG
22:50
M
7 °C 10 km+ 2.800 ft 150° 150° 16 kt METAR EDDL 272150Z AUTO 15016KT 9999 -RA BKN028 BKN036 BKN045 07/04 Q1013 NOSIG
22:20
V
7 °C 10 km+ 4.600 ft 150° 150° 18 kt METAR EDDL 272120Z AUTO 15018KT 9999 -RA FEW001 BKN046 07/04 Q1012 NOSIG
21:50
V
8 °C 10 km+ - 160° 160° 14 kt METAR EDDL 272050Z AUTO 16014KT CAVOK 08/03 Q1013 NOSIG
21:20
V
8 °C 10 km+ - 150° 150° 16 kt METAR EDDL 272020Z AUTO 15016KT CAVOK 08/03 Q1013 NOSIG
20:50
V
8 °C 10 km+ - 160° 160° 15 kt METAR EDDL 271950Z AUTO 16015KT CAVOK 08/03 Q1014 TEMPO 15015G25KT
20:20
V
8 °C 10 km+ - 160° 160° 16 kt METAR EDDL 271920Z AUTO 16016KT 9999 -RA NSC 08/04 Q1014 TEMPO 15015G25KT
19:50
V
8 °C 10 km+ - 170° 170° 13 kt METAR EDDL 271850Z AUTO 17013KT 9999 -RA FEW001 08/04 Q1014 TEMPO 15015G25KT
19:20
V
8 °C 10 km+ - 150° 150° 15 kt METAR EDDL 271820Z AUTO 15015KT 9999 -RA NSC 08/03 Q1015 TEMPO 15015G25KT
18:50
V
8 °C 10 km+ 4.900 ft 150° 150° 16 kt METAR EDDL 271750Z AUTO 15016KT 9999 -RA OVC049 08/04 Q1015 TEMPO 15015G25KT
18:20
V
8 °C 10 km+ 4.900 ft 150° 150° 14 kt METAR EDDL 271720Z AUTO 15014KT 9999 BKN049 08/03 Q1015 TEMPO 15015G25KT
17:50
V
8 °C 10 km+ - 150° 150° 16 kt METAR EDDL 271650Z AUTO 15016KT 9999 -DZ NSC 08/04 Q1016 TEMPO 15015G25KT
17:20
V
8 °C 10 km+ - 150° 150° 15 kt METAR EDDL 271620Z AUTO 15015KT CAVOK 08/04 Q1016 TEMPO 15015G25KT
16:50
V
9 °C 10 km+ - 140° 140° 17 kt METAR EDDL 271550Z AUTO 14017KT 9999 -RA NSC 09/04 Q1016 TEMPO 15015G25KT
16:20
V
9 °C 10 km+ - 150° 150° 13 kt METAR EDDL 271520Z AUTO 15013KT 9999 -RA NSC 09/03 Q1017 NOSIG
15:50
V
9 °C 10 km+ - 160° 160° 11 kt METAR EDDL 271450Z AUTO 16011KT 9999 -RA NSC 09/03 Q1017 NOSIG
15:20
V
9 °C 10 km+ - 160° 160° 9 kt METAR EDDL 271420Z AUTO 16009KT 130V190 9999 -RA FEW011 09/03 Q1018 NOSIG
14:50
V
9 °C 10 km+ - 160° 160° 10 kt METAR EDDL 271350Z AUTO 16010KT 120V190 9999 -RA NSC 09/03 Q1018 NOSIG
14:20
V
9 °C 10 km+ - 150° 150° 10 kt METAR EDDL 271320Z AUTO 15010KT CAVOK 09/04 Q1018 NOSIG
13:50
V
9 °C 10 km+ - 160° 160° 11 kt METAR EDDL 271250Z AUTO 16011KT CAVOK 09/04 Q1019 NOSIG
13:20
V
9 °C 10 km+ - 150° 150° 15 kt METAR EDDL 271220Z AUTO 15015KT CAVOK 09/04 Q1019 NOSIG
12:50
V
9 °C 10 km+ - 170° 170° 12 kt METAR EDDL 271150Z AUTO 17012KT 130V210 9999 -RA NSC 09/04 Q1019 NOSIG
12:20
V
8 °C 10 km+ - 140° 140° 17 kt METAR EDDL 271120Z AUTO 14017KT 9999 -RA FEW011 08/04 Q1019 NOSIG
11:50
V
8 °C 10 km+ - 150° 150° 12 kt METAR EDDL 271050Z AUTO 15012KT 9999 -RA FEW036 08/04 Q1021 NOSIG
11:20
V
8 °C 10 km+ - 160° 160° 12 kt METAR EDDL 271020Z AUTO 16012KT 130V190 CAVOK 08/03 Q1021 NOSIG
10:50
V
8 °C 10 km+ - 160° 160° 11 kt METAR EDDL 270950Z AUTO 16011KT CAVOK 08/03 Q1021 NOSIG
10:20
V
7 °C 10 km+ - 150° 150° 13 kt METAR EDDL 270920Z AUTO 15013KT CAVOK 07/03 Q1021 NOSIG
09:50
V
7 °C 10 km+ - 150° 150° 12 kt METAR EDDL 270850Z AUTO 15012KT CAVOK 07/03 Q1022 NOSIG
09:20
V
7 °C 10 km+ - 140° 140° 14 kt METAR EDDL 270820Z AUTO 14014KT CAVOK 07/03 Q1022 NOSIG
08:50
V
6 °C 10 km+ - 140° 140° 14 kt METAR EDDL 270750Z AUTO 14014KT 110V170 CAVOK 06/03 Q1022 NOSIG
08:20
V
6 °C 10 km+ - 150° 150° 14 kt METAR EDDL 270720Z AUTO 15014KT CAVOK 06/03 Q1022 NOSIG
07:50
V
5 °C 10 km+ - 160° 160° 14 kt METAR EDDL 270650Z AUTO 16014KT 130V190 CAVOK 05/02 Q1023 TEMPO 15015G25KT
07:20
V
5 °C 10 km+ - 150° 150° 15 kt METAR EDDL 270620Z AUTO 15015KT CAVOK 05/02 Q1023 TEMPO 15015G25KT
06:50
V
5 °C 10 km+ - 160° 160° 14 kt METAR EDDL 270550Z AUTO 16014KT CAVOK 05/02 Q1023 NOSIG
06:20
V
5 °C 10 km+ - 150° 150° 13 kt METAR EDDL 270520Z AUTO 15013KT 130V190 CAVOK 05/02 Q1024 NOSIG
05:50
V
5 °C 10 km+ - 150° 150° 15 kt METAR EDDL 270450Z AUTO 15015KT CAVOK 05/02 Q1024 NOSIG
05:20
V
5 °C 10 km+ - 150° 150° 18 kt METAR EDDL 270420Z AUTO 15018KT CAVOK 05/02 Q1024 NOSIG
04:50
V
5 °C 10 km+ - 150° 150° 16 kt METAR EDDL 270350Z AUTO 15016KT CAVOK 05/02 Q1024 NOSIG
04:20
V
5 °C 10 km+ - 150° 150° 17 kt METAR EDDL 270320Z AUTO 15017KT CAVOK 05/02 Q1024 NOSIG
03:50
V
5 °C 10 km+ - 150° 150° 15 kt METAR EDDL 270250Z AUTO 15015KT CAVOK 05/03 Q1025 NOSIG
03:20
V
5 °C 10 km+ - 160° 160° 14 kt METAR EDDL 270220Z AUTO 16014KT CAVOK 05/03 Q1025 NOSIG
02:50
V
5 °C 10 km+ - 150° 150° 15 kt METAR EDDL 270150Z AUTO 15015KT CAVOK 05/03 Q1025 NOSIG
02:20
V
6 °C 10 km+ - 150° 150° 15 kt METAR EDDL 270120Z AUTO 15015KT CAVOK 06/03 Q1026 NOSIG
01:50
V
6 °C 10 km+ - 150° 150° 13 kt METAR EDDL 270050Z AUTO 15013KT CAVOK 06/03 Q1026 NOSIG
01:20
V
6 °C 10 km+ - 150° 150° 14 kt METAR EDDL 270020Z AUTO 15014KT CAVOK 06/03 Q1026 NOSIG
00:50
V
6 °C 10 km+ - 150° 150° 13 kt METAR EDDL 262350Z AUTO 15013KT CAVOK 06/03 Q1026 NOSIG
00:20
V
6 °C 10 km+ - 150° 150° 14 kt METAR EDDL 262320Z AUTO 15014KT CAVOK 06/03 Q1027 NOSIG

26. November 2022

Uhrzeit Code Wetter Temp. Sichtweite Wolkendecke Wind METAR/SPECI
23:50
V
6 °C 10 km+ - 150° 150° 12 kt METAR EDDL 262250Z AUTO 15012KT CAVOK 06/04 Q1027 NOSIG
23:20
V
6 °C 10 km+ - 160° 160° 12 kt METAR EDDL 262220Z AUTO 16012KT CAVOK 06/04 Q1027 NOSIG
22:50
V
6 °C 10 km+ - 150° 150° 11 kt METAR EDDL 262150Z AUTO 15011KT 120V180 CAVOK 06/04 Q1028 NOSIG
22:20
V
6 °C 10 km+ - 150° 150° 11 kt METAR EDDL 262120Z AUTO 15011KT CAVOK 06/04 Q1028 NOSIG
21:50
V
6 °C 10 km+ - 150° 150° 12 kt METAR EDDL 262050Z AUTO 15012KT CAVOK 06/04 Q1028 NOSIG
21:20
V
6 °C 10 km+ - 150° 150° 12 kt METAR EDDL 262020Z AUTO 15012KT CAVOK 06/04 Q1028 NOSIG
20:50
V
7 °C 10 km+ - 150° 150° 11 kt METAR EDDL 261950Z AUTO 15011KT CAVOK 07/04 Q1028 NOSIG
20:20
V
6 °C 10 km+ - 150° 150° 11 kt METAR EDDL 261920Z AUTO 15011KT CAVOK 06/04 Q1028 NOSIG
19:50
V
7 °C 10 km+ - 150° 150° 10 kt METAR EDDL 261850Z AUTO 15010KT CAVOK 07/05 Q1028 NOSIG
19:20
V
7 °C 10 km+ - 150° 150° 10 kt METAR EDDL 261820Z AUTO 15010KT CAVOK 07/05 Q1028 NOSIG
18:50
V
7 °C 10 km+ - 150° 150° 10 kt METAR EDDL 261750Z AUTO 15010KT CAVOK 07/05 Q1029 NOSIG
18:20
V
7 °C 10 km+ - 150° 150° 9 kt METAR EDDL 261720Z AUTO 15009KT CAVOK 07/05 Q1029 NOSIG
17:50
V
8 °C 10 km+ - 160° 160° 9 kt METAR EDDL 261650Z AUTO 16009KT CAVOK 08/05 Q1029 NOSIG
17:20
V
8 °C 10 km+ - 150° 150° 10 kt METAR EDDL 261620Z AUTO 15010KT CAVOK 08/05 Q1029 NOSIG
16:50
V
8 °C 10 km+ - 150° 150° 9 kt METAR EDDL 261550Z AUTO 15009KT CAVOK 08/05 Q1029 NOSIG
16:20
V
9 °C 10 km+ - 160° 160° 9 kt METAR EDDL 261520Z AUTO 16009KT CAVOK 09/05 Q1029 NOSIG
15:50
V
9 °C 10 km+ - 160° 160° 7 kt METAR EDDL 261450Z AUTO 16007KT CAVOK 09/06 Q1029 NOSIG
15:20
V
9 °C 10 km+ - 150° 150° 9 kt METAR EDDL 261420Z AUTO 15009KT CAVOK 09/06 Q1029 NOSIG
14:50
V
10 °C 10 km+ - 170° 170° 7 kt METAR EDDL 261350Z AUTO 17007KT 130V190 CAVOK 10/06 Q1029 NOSIG
14:20
V
9 °C 10 km+ - 150° 150° 9 kt METAR EDDL 261320Z AUTO 15009KT CAVOK 09/06 Q1029 NOSIG
13:50
V
9 °C 10 km+ - 160° 160° 9 kt METAR EDDL 261250Z AUTO 16009KT CAVOK 09/06 Q1029 NOSIG
13:20
V
9 °C 10 km+ - 150° 150° 9 kt METAR EDDL 261220Z AUTO 15009KT CAVOK 09/06 Q1029 NOSIG
12:50
V
9 °C 10 km+ - 170° 170° 7 kt METAR EDDL 261150Z AUTO 17007KT 150V210 CAVOK 09/06 Q1029 NOSIG
12:20
V
9 °C 10 km+ - 150° 150° 7 kt METAR EDDL 261120Z AUTO 15007KT CAVOK 09/06 Q1030 NOSIG
11:50
V
8 °C 10 km+ - 160° 160° 6 kt METAR EDDL 261050Z AUTO 16006KT 130V190 CAVOK 08/06 Q1030 NOSIG
11:20
V
7 °C 10 km+ - 160° 160° 9 kt METAR EDDL 261020Z AUTO 16009KT CAVOK 07/06 Q1030 NOSIG
10:50
V
7 °C 10 km+ - 160° 160° 8 kt METAR EDDL 260950Z AUTO 16008KT CAVOK 07/05 Q1030 NOSIG
10:20
V
6 °C 10 km+ - 150° 150° 8 kt METAR EDDL 260920Z AUTO 15008KT CAVOK 06/05 Q1030 NOSIG
09:50
V
6 °C 10 km+ - 150° 150° 9 kt METAR EDDL 260850Z AUTO 15009KT CAVOK 06/05 Q1030 NOSIG
09:20
V
5 °C 10 km+ - 150° 150° 9 kt METAR EDDL 260820Z AUTO 15009KT CAVOK 05/04 Q1029 NOSIG
08:50
V
5 °C 10 km+ - 150° 150° 8 kt METAR EDDL 260750Z AUTO 15008KT CAVOK 05/04 Q1029 NOSIG
08:20
V
5 °C 10 km+ - 160° 160° 8 kt METAR EDDL 260720Z AUTO 16008KT CAVOK 05/04 Q1029 NOSIG
07:50
V
5 °C 10 km+ - 160° 160° 8 kt METAR EDDL 260650Z AUTO 16008KT 9999 SCT027 05/04 Q1029 NOSIG
07:20
V
5 °C 10 km+ - 160° 160° 6 kt METAR EDDL 260620Z AUTO 16006KT 9999 FEW010 05/04 Q1029 NOSIG
06:50
V
6 °C 10 km+ 3.000 ft 160° 160° 5 kt METAR EDDL 260550Z AUTO 16005KT 9999 BKN030 06/05 Q1028 NOSIG
06:20
V
5 °C 10 km+ 3.000 ft 160° 160° 6 kt METAR EDDL 260520Z AUTO 16006KT 9999 BKN030 05/05 Q1028 NOSIG
05:50
V
5 °C 10 km+ 3.000 ft 160° 160° 6 kt METAR EDDL 260450Z AUTO 16006KT 9999 FEW008 BKN030 05/04 Q1028 NOSIG
05:20
M
4 °C 10 km+ 2.800 ft 160° 160° 6 kt METAR EDDL 260420Z AUTO 16006KT 9999 BKN028 04/04 Q1028 NOSIG
04:50
V
4 °C 10 km+ - 160° 160° 6 kt METAR EDDL 260350Z AUTO 16006KT 9999 FEW028 04/04 Q1027 NOSIG
04:20
V
4 °C 10 km+ - 150° 150° 3 kt METAR EDDL 260320Z AUTO 15003KT 110V220 9999 FEW028 04/03 Q1027 NOSIG
03:50
V
4 °C 10 km+ - 170° 170° 5 kt METAR EDDL 260250Z AUTO 17005KT CAVOK 04/04 Q1027 NOSIG
03:20
V
3 °C 10 km+ - 190° 190° 5 kt METAR EDDL 260220Z AUTO 19005KT CAVOK 03/03 Q1027 NOSIG
02:50
V
5 °C 10 km+ - 210° 210° 5 kt METAR EDDL 260150Z AUTO 21005KT 9999 SCT028 SCT038 05/05 Q1027 NOSIG
02:20
M
4 °C 10 km+ 2.700 ft 210° 210° 4 kt METAR EDDL 260120Z AUTO 21004KT 9999 BKN027 BKN033 04/03 Q1027 NOSIG
01:50
L
3 °C 1,1 km - 220° 220° 5 kt METAR EDDL 260050Z AUTO 22005KT 9999 1100 R23R/1300U R23L/P2000N BR NCD 03/03 Q1026 NOSIG
01:20
I
4 °C 1,7 km - 220° 220° 6 kt METAR EDDL 260020Z AUTO 22006KT 8000 1700 BR FEW025 04/03 Q1026 NOSIG
00:50
V
4 °C 10 km+ - 200° 200° 5 kt METAR EDDL 252350Z AUTO 20005KT 9999 SCT025 04/04 Q1026 NOSIG
00:20
L
4 °C 1,1 km - 210° 210° 5 kt METAR EDDL 252320Z AUTO 21005KT 9999 1100 R23R/1300D R23L/P2000N BR SCT025 04/04 Q1025 NOSIG

25. November 2022

Uhrzeit Code Wetter Temp. Sichtweite Wolkendecke Wind METAR/SPECI
23:50
I
4 °C 2,2 km - 220° 220° 4 kt METAR EDDL 252250Z AUTO 22004KT 9999 2200 R23R/1400U BR FEW026 04/04 Q1025 NOSIG
23:20
I
5 °C 3,9 km - 240° 240° 5 kt METAR EDDL 252220Z AUTO 24005KT 9999 3900 BR NCD 05/05 Q1025 NOSIG
22:50
V
6 °C 10 km+ - 240° 240° 6 kt METAR EDDL 252150Z AUTO 24006KT CAVOK 06/06 Q1024 NOSIG
22:20
V
6 °C 10 km+ - 230° 230° 7 kt METAR EDDL 252120Z AUTO 23007KT 9999 FEW001 06/06 Q1024 NOSIG
21:50
V
6 °C 10 km+ - 230° 230° 6 kt METAR EDDL 252050Z AUTO 23006KT 9999 FEW001 06/06 Q1024
21:20
V
7 °C 10 km+ - 240° 240° 5 kt METAR EDDL 252020Z AUTO 24005KT 9999 FEW022 07/06 Q1023 NOSIG
20:50
M
8 °C 10 km+ 2.200 ft 240° 240° 6 kt METAR EDDL 251950Z AUTO 24006KT 9999 BKN022 08/07 Q1023 NOSIG
20:20
V
8 °C 10 km+ 4.200 ft 240° 240° 5 kt METAR EDDL 251920Z AUTO 24005KT 9999 SCT022 BKN042 08/07 Q1022 NOSIG
19:50
M
9 °C 10 km+ 2.100 ft 250° 250° 4 kt METAR EDDL 251850Z AUTO 25004KT 9999 -SHRA BKN021 BKN046 FEW///CB 09/07 Q1022 RESHRA NOSIG
19:20
V
10 °C 10 km+ - 260° 260° 7 kt METAR EDDL 251820Z AUTO 26007KT 9999 SHRA FEW021 FEW///CB 10/07 Q1021 BECMG NSW
18:50
V
9 °C 10 km+ - 230° 230° 7 kt METAR EDDL 251750Z AUTO 23007KT 9999 FEW026 09/07 Q1021 TEMPO SHRA BKN025TCU
18:20
V
10 °C 10 km+ 3.100 ft 230° 230° 8 kt METAR EDDL 251720Z AUTO 23008KT 9999 BKN031 BKN041 10/07 Q1020 TEMPO SHRA BKN025TCU
17:50
V
10 °C 10 km+ 4.700 ft 230° 230° 7 kt METAR EDDL 251650Z AUTO 23007KT 9999 FEW001 BKN047 10/07 Q1020 TEMPO SHRA BKN025TCU
17:20
V
9 °C 10 km+ 4.400 ft 220° 220° 7 kt METAR EDDL 251620Z AUTO 22007KT 9999 OVC044 09/07 Q1019 NOSIG
16:50
V
9 °C 10 km+ 4.100 ft 230° 230° 8 kt METAR EDDL 251550Z AUTO 23008KT 9999 BKN041 09/06 Q1019 NOSIG
16:20
V
11 °C 10 km+ 3.500 ft 230° 230° 7 kt METAR EDDL 251520Z AUTO 23007KT 9999 FEW027 OVC035 11/07 Q1018 NOSIG
15:50
M
11 °C 10 km+ 2.600 ft 240° 240° 4 kt METAR EDDL 251450Z AUTO 24004KT 9999 BKN026 OVC031 11/07 Q1018 NOSIG
15:20
M
11 °C 10 km+ 2.700 ft 260° 260° 9 kt METAR EDDL 251420Z AUTO 26009KT 230V290 9999 BKN027 11/07 Q1018 NOSIG
14:50
V
12 °C 10 km+ - 230° 230° 7 kt METAR EDDL 251350Z AUTO 23007KT 9999 FEW026 12/07 Q1017 NOSIG
14:20
V
11 °C 10 km+ - 230° 230° 9 kt METAR EDDL 251320Z AUTO 23009KT 9999 FEW026 11/07 Q1017 NOSIG
13:50
M
11 °C 10 km+ 2.000 ft 230° 230° 11 kt METAR EDDL 251250Z AUTO 23011KT 9999 BKN020 BKN028 11/07 Q1016 NOSIG
13:20
V
12 °C 10 km+ - 240° 240° 11 kt METAR EDDL 251220Z AUTO 24011KT 9999 FEW018 SCT022 12/08 Q1016 NOSIG
12:50
V
11 °C 10 km+ - 230° 230° 11 kt METAR EDDL 251150Z AUTO 23011KT 9999 SCT018 11/07 Q1016 NOSIG
12:20
M
12 °C 10 km+ 1.700 ft 230° 230° 11 kt METAR EDDL 251120Z AUTO 23011KT 190V250 9999 BKN017 12/08 Q1016 NOSIG
11:50
M
11 °C 10 km+ 1.600 ft 220° 220° 11 kt METAR EDDL 251050Z AUTO 22011KT 9999 BKN016 11/08 Q1015 NOSIG
11:20
V
10 °C 10 km+ - 220° 220° 9 kt METAR EDDL 251020Z AUTO 22009KT 9999 SCT015 10/08 Q1015 NOSIG
10:50
V
10 °C 10 km+ - 200° 200° 8 kt METAR EDDL 250950Z AUTO 20008KT 9999 FEW013 10/08 Q1015 NOSIG

Wir und Dritte verfolgen dein Internetverhalten auf unserer Website mit Cookies. Wenn du fortfährst, gehen wir davon aus, dass du mit unserer Cookie-Richtlinie einverstanden bist.